Dixmoor, Illinois
Current Conditions -  °F | °C
As of 9:53 AM on Thursday 29 Jan 2015 (Local Time) from KMDW Reporting Station
Haze Haze  
Wind Chill: 25°   Ceiling: 1700
Heat Index: 35°   Visibility: 6mi
Dew Point: 29°   Wind: 17mph
Humidity: 78%   Direction: 310°NW
Pressure: 29.86"   Gusts: 26mph
Location:  41.6641°N, 87.6855°W
Report Text: KMDW 291553Z 31015G23KT 6SM HZ OVC017 02/M02 A2986 RMK AO2 SNE11 SLP120 P0000 T00171017 $
Loading
Personal Weather Stations






























Interactive Weather Map New forecast layout! Learn more

10-Day Weather Forecast

Advertisements
Track Severe Weather on mobile